createdAt,value
2023-08-22T00:00:44.098Z,20.17
2023-08-22T00:01:44.009Z,20.09
2023-08-22T00:02:44.017Z,19.92
2023-08-22T00:03:44.108Z,20.05
2023-08-22T00:04:43.982Z,19.98
2023-08-22T00:05:43.952Z,19.98
2023-08-22T00:06:43.948Z,20.03
2023-08-22T00:07:43.972Z,19.90
2023-08-22T00:08:43.921Z,19.86
2023-08-22T00:09:43.952Z,19.68
2023-08-22T00:10:43.940Z,19.55
2023-08-22T00:11:43.889Z,19.86
2023-08-22T00:12:43.910Z,20.21
2023-08-22T00:13:43.862Z,20.38
2023-08-22T00:14:43.859Z,20.34
2023-08-22T00:15:43.867Z,20.32
2023-08-22T00:16:43.835Z,20.21
2023-08-22T00:17:43.856Z,20.23
2023-08-22T00:18:43.862Z,20.26
2023-08-22T00:19:43.824Z,20.52
2023-08-22T00:20:43.805Z,20.56
2023-08-22T00:21:43.822Z,20.68
2023-08-22T00:22:43.783Z,20.64
2023-08-22T00:23:43.795Z,20.52
2023-08-22T00:24:43.749Z,20.56
2023-08-22T00:25:43.753Z,20.36
2023-08-22T00:26:43.733Z,20.26
2023-08-22T00:27:43.950Z,20.15
2023-08-22T00:28:43.707Z,20.21
2023-08-22T00:29:43.707Z,20.21
2023-08-22T00:30:43.813Z,20.28
2023-08-22T00:31:43.669Z,20.62
2023-08-22T00:32:43.689Z,21.06
2023-08-22T00:33:43.682Z,21.36
2023-08-22T00:34:43.647Z,21.49
2023-08-22T00:35:43.689Z,21.47
2023-08-22T00:36:43.618Z,21.36
2023-08-22T00:37:43.620Z,21.31
2023-08-22T00:38:43.601Z,21.51
2023-08-22T00:39:43.623Z,21.64
2023-08-22T00:40:43.581Z,21.69
2023-08-22T00:41:43.575Z,21.67
2023-08-22T00:42:43.559Z,21.55
2023-08-22T00:43:43.569Z,21.55
2023-08-22T00:44:43.538Z,21.75
2023-08-22T00:45:43.568Z,21.98
2023-08-22T00:46:43.559Z,22.08
2023-08-22T00:47:43.824Z,22.12
2023-08-22T00:48:43.509Z,22.10
2023-08-22T00:49:43.491Z,21.78
2023-08-22T00:50:43.464Z,21.51
2023-08-22T00:51:43.487Z,21.29
2023-08-22T00:52:43.450Z,20.85
2023-08-22T00:53:43.476Z,20.77
2023-08-22T00:54:43.445Z,20.77
2023-08-22T00:55:43.513Z,21.04
2023-08-22T00:56:43.439Z,21.16
2023-08-22T00:57:43.849Z,21.29
2023-08-22T00:58:43.392Z,21.18
2023-08-22T00:59:43.432Z,20.97
2023-08-22T01:00:43.444Z,20.85
2023-08-22T01:01:43.364Z,20.60
2023-08-22T01:02:43.469Z,20.38
2023-08-22T01:03:43.456Z,20.25
2023-08-22T01:04:43.361Z,20.17
2023-08-22T01:05:43.311Z,20.03
2023-08-22T01:06:43.305Z,20.11
2023-08-22T01:07:43.292Z,20.21
2023-08-22T01:08:43.287Z,20.25
2023-08-22T01:09:43.283Z,20.21
2023-08-22T01:10:43.302Z,20.21
2023-08-22T01:11:43.258Z,20.30
2023-08-22T01:12:43.264Z,20.34
2023-08-22T01:13:43.235Z,20.28
2023-08-22T01:14:43.216Z,20.23
2023-08-22T01:15:43.236Z,20.25
2023-08-22T01:16:43.275Z,20.23
2023-08-22T01:17:43.472Z,20.26
2023-08-22T01:18:43.169Z,20.21
2023-08-22T01:19:43.201Z,20.19
2023-08-22T01:20:43.183Z,20.09
2023-08-22T01:21:43.163Z,20.28
2023-08-22T01:22:43.177Z,20.48
2023-08-22T01:23:43.116Z,20.32
2023-08-22T01:24:43.119Z,20.32
2023-08-22T01:25:43.120Z,20.48
2023-08-22T01:26:43.096Z,20.46
2023-08-22T01:27:43.201Z,20.44
2023-08-22T01:28:43.098Z,20.52
2023-08-22T01:29:43.065Z,20.83
2023-08-22T01:30:43.057Z,21.10
2023-08-22T01:31:43.069Z,21.29
2023-08-22T01:32:43.069Z,21.27
2023-08-22T01:33:43.049Z,21.18
2023-08-22T01:34:43.016Z,20.91
2023-08-22T01:35:42.999Z,20.68
2023-08-22T01:36:42.987Z,20.58
2023-08-22T01:37:42.987Z,20.52
2023-08-22T01:38:42.968Z,20.48
2023-08-22T01:39:42.998Z,20.38
2023-08-22T01:40:42.945Z,20.25
2023-08-22T01:41:42.940Z,20.15
2023-08-22T01:42:42.953Z,20.01
2023-08-22T01:43:42.902Z,20.11
2023-08-22T01:44:42.945Z,20.05
2023-08-22T01:45:42.955Z,19.98
2023-08-22T01:46:42.881Z,19.83
2023-08-22T01:47:43.263Z,19.88
2023-08-22T01:48:42.871Z,19.81
2023-08-22T01:49:42.869Z,19.84
2023-08-22T01:50:42.860Z,19.86
2023-08-22T01:51:42.851Z,19.75
2023-08-22T01:52:42.827Z,19.69
2023-08-22T01:53:42.815Z,19.64
2023-08-22T01:54:42.785Z,19.64
2023-08-22T01:55:42.847Z,19.53
2023-08-22T01:56:42.776Z,19.44
2023-08-22T01:57:42.758Z,19.41
2023-08-22T01:58:42.757Z,19.32
2023-08-22T01:59:42.743Z,19.39
2023-08-22T02:00:42.773Z,19.16
2023-08-22T02:01:42.754Z,19.10
2023-08-22T02:02:42.837Z,18.95
2023-08-22T02:03:42.781Z,19.00
2023-08-22T02:04:42.687Z,19.05
2023-08-22T02:05:42.679Z,19.05
2023-08-22T02:06:42.697Z,19.05
2023-08-22T02:07:42.940Z,18.93
2023-08-22T02:08:42.636Z,18.90
2023-08-22T02:09:42.628Z,18.83
2023-08-22T02:10:42.654Z,18.88
2023-08-22T02:11:42.614Z,18.83
2023-08-22T02:12:42.604Z,18.88
2023-08-22T02:13:42.643Z,19.05
2023-08-22T02:14:42.586Z,19.10
2023-08-22T02:15:42.576Z,19.35
2023-08-22T02:16:42.604Z,19.58
2023-08-22T02:17:42.859Z,19.86
2023-08-22T02:18:42.575Z,20.03
2023-08-22T02:19:42.542Z,20.21
2023-08-22T02:20:42.524Z,20.56
2023-08-22T02:21:42.544Z,20.91
2023-08-22T02:22:42.513Z,21.29
2023-08-22T02:23:42.486Z,21.58
2023-08-22T02:24:42.498Z,21.60
2023-08-22T02:25:42.482Z,21.71
2023-08-22T02:26:42.484Z,21.84
2023-08-22T02:27:42.683Z,22.00
2023-08-22T02:28:42.437Z,21.78
2023-08-22T02:29:42.423Z,21.64
2023-08-22T02:30:42.437Z,21.25
2023-08-22T02:31:42.459Z,21.01
2023-08-22T02:32:42.476Z,20.99
2023-08-22T02:33:42.513Z,20.89
2023-08-22T02:34:42.402Z,21.04
2023-08-22T02:35:42.386Z,21.08
2023-08-22T02:36:42.372Z,21.01
2023-08-22T02:37:42.524Z,21.04
2023-08-22T02:38:42.334Z,21.01
2023-08-22T02:39:42.321Z,21.04
2023-08-22T02:40:42.311Z,21.14
2023-08-22T02:41:42.326Z,21.14
2023-08-22T02:42:42.320Z,21.08
2023-08-22T02:43:42.288Z,20.85
2023-08-22T02:44:42.279Z,20.85
2023-08-22T02:45:42.281Z,20.73
2023-08-22T02:46:42.261Z,20.60
2023-08-22T02:47:42.596Z,20.66
2023-08-22T02:48:42.261Z,20.56
2023-08-22T02:49:42.211Z,20.62
2023-08-22T02:50:42.306Z,20.54
2023-08-22T02:51:42.185Z,20.32
2023-08-22T02:52:42.185Z,20.30
2023-08-22T02:53:42.162Z,20.32
2023-08-22T02:54:42.179Z,20.25
2023-08-22T02:55:42.178Z,20.19
2023-08-22T02:56:42.175Z,19.98
2023-08-22T02:57:42.380Z,19.88
2023-08-22T02:58:42.164Z,19.92
2023-08-22T02:59:42.135Z,19.90
2023-08-22T03:00:42.101Z,19.86
2023-08-22T03:01:42.089Z,19.96
2023-08-22T03:02:42.221Z,19.81
2023-08-22T03:03:42.073Z,19.79
2023-08-22T03:04:42.089Z,19.73
2023-08-22T03:05:42.040Z,19.73
2023-08-22T03:06:42.033Z,19.75
2023-08-22T03:07:42.295Z,19.77
2023-08-22T03:08:42.017Z,19.90
2023-08-22T03:09:42.002Z,19.92
2023-08-22T03:10:42.014Z,20.00
2023-08-22T03:11:41.984Z,20.01
2023-08-22T03:12:42.006Z,20.05
2023-08-22T03:13:41.977Z,20.00
2023-08-22T03:14:41.947Z,19.98
2023-08-22T03:15:42.030Z,19.88
2023-08-22T03:16:42.010Z,19.84
2023-08-22T03:17:42.224Z,19.75
2023-08-22T03:18:41.899Z,19.69
2023-08-22T03:19:41.903Z,19.79
2023-08-22T03:20:41.875Z,19.81
2023-08-22T03:21:41.887Z,19.83
2023-08-22T03:22:41.861Z,19.88
2023-08-22T03:23:41.853Z,19.84
2023-08-22T03:24:41.833Z,19.84
2023-08-22T03:25:41.830Z,20.00
2023-08-22T03:26:42.003Z,20.11
2023-08-22T03:27:42.092Z,20.11
2023-08-22T03:28:41.804Z,20.15
2023-08-22T03:29:41.780Z,20.13
2023-08-22T03:30:41.818Z,20.03
2023-08-22T03:31:41.768Z,20.17
2023-08-22T03:32:41.803Z,20.26
2023-08-22T03:33:41.742Z,20.42
2023-08-22T03:34:41.730Z,20.60
2023-08-22T03:35:41.723Z,20.58
2023-08-22T03:36:41.730Z,20.66
2023-08-22T03:37:42.033Z,20.73
2023-08-22T03:38:41.688Z,20.73
2023-08-22T03:39:41.674Z,20.81
2023-08-22T03:40:41.694Z,21.06
2023-08-22T03:41:41.660Z,21.14
2023-08-22T03:42:41.650Z,21.27
2023-08-22T03:43:41.635Z,21.10
2023-08-22T03:44:41.629Z,21.16
2023-08-22T03:45:41.614Z,20.99
2023-08-22T03:46:41.668Z,20.93
2023-08-22T03:47:41.853Z,21.04
2023-08-22T03:48:41.595Z,21.25
2023-08-22T03:49:41.574Z,21.33
2023-08-22T03:50:41.582Z,21.53
2023-08-22T03:51:41.557Z,21.73
2023-08-22T03:52:41.568Z,21.78
2023-08-22T03:53:41.533Z,21.71
2023-08-22T03:54:41.534Z,21.80
2023-08-22T03:55:41.505Z,21.84
2023-08-22T03:56:41.509Z,21.84
2023-08-22T03:57:41.718Z,21.73
2023-08-22T03:58:41.485Z,21.60
2023-08-22T03:59:41.466Z,21.67
2023-08-22T04:00:41.529Z,21.67
2023-08-22T04:01:41.451Z,22.12
2023-08-22T04:02:41.555Z,22.31
2023-08-22T04:03:41.421Z,22.26
2023-08-22T04:04:41.421Z,22.03
2023-08-22T04:05:41.433Z,21.67
2023-08-22T04:06:41.454Z,21.38
2023-08-22T04:07:41.721Z,21.21
2023-08-22T04:08:41.411Z,20.85
2023-08-22T04:09:41.384Z,20.52
2023-08-22T04:10:41.365Z,20.42
2023-08-22T04:11:41.358Z,20.23
2023-08-22T04:12:41.324Z,20.09
2023-08-22T04:13:41.348Z,19.96
2023-08-22T04:14:41.330Z,19.94
2023-08-22T04:15:41.349Z,19.83
2023-08-22T04:16:41.336Z,19.79
2023-08-22T04:17:41.519Z,19.77
2023-08-22T04:18:41.280Z,19.60
2023-08-22T04:19:41.248Z,19.57
2023-08-22T04:20:41.265Z,19.46
2023-08-22T04:21:41.237Z,19.46
2023-08-22T04:22:41.246Z,19.42
2023-08-22T04:23:41.214Z,19.32
2023-08-22T04:24:41.226Z,19.35
2023-08-22T04:25:41.228Z,19.42
2023-08-22T04:26:41.229Z,19.39
2023-08-22T04:27:42.014Z,19.32
2023-08-22T04:28:41.153Z,19.28
2023-08-22T04:29:41.167Z,19.32
2023-08-22T04:30:41.170Z,19.23
2023-08-22T04:31:41.188Z,19.10
2023-08-22T04:32:41.202Z,19.12
2023-08-22T04:33:41.133Z,19.07
2023-08-22T04:34:41.117Z,19.03
2023-08-22T04:35:41.078Z,19.03
2023-08-22T04:36:41.116Z,18.95
2023-08-22T04:37:41.302Z,18.86
2023-08-22T04:38:41.097Z,18.88
2023-08-22T04:39:41.066Z,18.90
2023-08-22T04:40:41.033Z,18.85
2023-08-22T04:41:41.017Z,18.83
2023-08-22T04:42:41.008Z,18.73
2023-08-22T04:43:41.030Z,18.78
2023-08-22T04:44:40.984Z,18.68
2023-08-22T04:45:40.997Z,18.66
2023-08-22T04:46:41.057Z,18.68
2023-08-22T04:47:41.228Z,18.71
2023-08-22T04:48:40.936Z,18.63
2023-08-22T04:49:40.933Z,18.63
2023-08-22T04:50:40.928Z,18.57
2023-08-22T04:51:40.962Z,18.73
2023-08-22T04:52:40.908Z,18.73
2023-08-22T04:53:40.917Z,18.68
2023-08-22T04:54:40.872Z,18.73
2023-08-22T04:55:40.870Z,18.86
2023-08-22T04:56:40.884Z,18.86
2023-08-22T04:57:41.470Z,18.93
2023-08-22T04:58:40.905Z,18.80
2023-08-22T04:59:40.826Z,18.70
2023-08-22T05:00:40.875Z,18.60
2023-08-22T05:01:40.855Z,18.66
2023-08-22T05:02:40.843Z,18.61
2023-08-22T05:03:40.790Z,18.50
2023-08-22T05:04:40.774Z,18.48
2023-08-22T05:05:40.922Z,18.48
2023-08-22T05:06:40.831Z,18.55
2023-08-22T05:07:41.037Z,18.47
2023-08-22T05:08:40.767Z,18.45
2023-08-22T05:09:40.742Z,18.47
2023-08-22T05:10:40.776Z,18.47
2023-08-22T05:11:40.708Z,18.42
2023-08-22T05:12:40.802Z,18.47
2023-08-22T05:13:40.737Z,18.50
2023-08-22T05:14:40.740Z,18.53
2023-08-22T05:15:40.688Z,18.60
2023-08-22T05:16:40.776Z,18.63
2023-08-22T05:17:41.041Z,18.63
2023-08-22T05:18:40.680Z,18.60
2023-08-22T05:19:40.636Z,18.66
2023-08-22T05:20:40.613Z,18.61
2023-08-22T05:21:40.636Z,18.63
2023-08-22T05:22:40.588Z,18.65
2023-08-22T05:23:40.623Z,18.65
2023-08-22T05:24:40.576Z,18.60
2023-08-22T05:25:40.556Z,18.65
2023-08-22T05:26:40.715Z,18.63
2023-08-22T05:27:40.765Z,18.63
2023-08-22T05:28:40.521Z,18.76
2023-08-22T05:29:40.504Z,18.60
2023-08-22T05:30:40.517Z,18.53
2023-08-22T05:31:40.518Z,18.53
2023-08-22T05:32:40.565Z,18.53
2023-08-22T05:33:40.476Z,18.60
2023-08-22T05:34:40.453Z,18.45
2023-08-22T05:35:40.468Z,18.42
2023-08-22T05:36:40.429Z,18.24
2023-08-22T05:37:40.706Z,18.18
2023-08-22T05:38:40.483Z,17.99
2023-08-22T05:39:40.402Z,18.01
2023-08-22T05:40:40.410Z,17.84
2023-08-22T05:41:40.441Z,17.72
2023-08-22T05:42:40.375Z,17.70
2023-08-22T05:43:40.353Z,17.66
2023-08-22T05:44:40.407Z,17.69
2023-08-22T05:45:40.380Z,17.67
2023-08-22T05:46:40.345Z,17.66
2023-08-22T05:47:40.654Z,17.69
2023-08-22T05:48:40.314Z,17.73
2023-08-22T05:49:40.826Z,17.75
2023-08-22T05:50:40.265Z,17.79
2023-08-22T05:51:40.272Z,17.79
2023-08-22T05:52:40.269Z,17.81
2023-08-22T05:53:40.264Z,17.82
2023-08-22T05:54:40.245Z,17.96
2023-08-22T05:55:40.245Z,18.04
2023-08-22T05:56:40.206Z,17.99
2023-08-22T05:57:40.661Z,18.19
2023-08-22T05:58:40.183Z,18.08
2023-08-22T05:59:40.245Z,18.19
2023-08-22T06:00:40.176Z,18.19
2023-08-22T06:01:40.252Z,18.16
2023-08-22T06:02:40.241Z,18.24
2023-08-22T06:03:40.506Z,18.16
2023-08-22T06:04:40.196Z,18.19
2023-08-22T06:05:40.183Z,18.04
2023-08-22T06:06:40.154Z,18.16
2023-08-22T06:07:40.358Z,18.16
2023-08-22T06:08:40.141Z,18.24
2023-08-22T06:09:40.130Z,18.18
2023-08-22T06:10:40.119Z,18.26
2023-08-22T06:11:40.086Z,18.27
2023-08-22T06:12:40.044Z,18.61
2023-08-22T06:13:40.078Z,19.05
2023-08-22T06:14:40.034Z,19.28
2023-08-22T06:15:40.055Z,19.50
2023-08-22T06:16:40.033Z,19.60
2023-08-22T06:17:40.279Z,19.69
2023-08-22T06:18:40.076Z,19.94
2023-08-22T06:19:39.973Z,19.98
2023-08-22T06:20:40.012Z,20.30
2023-08-22T06:21:39.961Z,20.91
2023-08-22T06:22:40.005Z,21.47
2023-08-22T06:23:39.924Z,21.80
2023-08-22T06:24:39.931Z,21.98
2023-08-22T06:25:39.944Z,21.98
2023-08-22T06:26:39.899Z,22.31
2023-08-22T06:27:40.149Z,22.65
2023-08-22T06:28:39.970Z,23.53
2023-08-22T06:29:39.861Z,24.72
2023-08-22T06:30:39.849Z,26.31
2023-08-22T06:31:39.910Z,28.35
2023-08-22T06:32:39.893Z,29.59
2023-08-22T06:33:39.925Z,30.44
2023-08-22T06:34:39.849Z,32.87
2023-08-22T06:35:39.796Z,34.04
2023-08-22T06:36:39.823Z,36.49
2023-08-22T06:37:40.166Z,39.65
2023-08-22T06:38:39.807Z,43.28
2023-08-22T06:39:39.801Z,46.64
2023-08-22T06:40:39.796Z,50.63
2023-08-22T06:41:39.755Z,54.47
2023-08-22T06:42:39.731Z,57.96
2023-08-22T06:43:39.742Z,59.52
2023-08-22T06:44:39.698Z,58.86
2023-08-22T06:45:39.727Z,59.27
2023-08-22T06:46:39.678Z,57.49
2023-08-22T06:47:40.036Z,54.97
2023-08-22T06:48:42.591Z,54.51
2023-08-22T06:49:39.656Z,54.22
2023-08-22T06:50:39.640Z,51.47
2023-08-22T06:51:39.631Z,54.54
2023-08-22T06:52:39.645Z,57.81
2023-08-22T06:53:39.635Z,59.78
2023-08-22T06:54:39.601Z,58.94
2023-08-22T06:55:39.577Z,58.90
2023-08-22T06:56:39.598Z,57.84
2023-08-22T06:57:42.055Z,56.98
2023-08-22T06:58:39.658Z,57.53
2023-08-22T06:59:39.603Z,58.86
2023-08-22T07:00:39.529Z,69.81
2023-08-22T07:01:39.567Z,77.46
2023-08-22T07:02:39.597Z,74.18
2023-08-22T07:03:39.626Z,73.53
2023-08-22T07:04:39.696Z,81.67
2023-08-22T07:05:39.511Z,85.58
2023-08-22T07:06:39.524Z,86.55
2023-08-22T07:07:39.795Z,90.76
2023-08-22T07:08:39.504Z,94.88
2023-08-22T07:09:39.459Z,96.24
2023-08-22T07:10:39.586Z,111.49
2023-08-22T07:11:39.433Z,113.60
2023-08-22T07:12:40.122Z,122.18
2023-08-22T07:13:39.387Z,127.37
2023-08-22T07:14:39.436Z,122.45
2023-08-22T07:15:39.367Z,116.19
2023-08-22T07:16:39.446Z,111.12
2023-08-22T07:17:42.645Z,120.35
2023-08-22T07:18:39.369Z,132.59
2023-08-22T07:19:42.296Z,133.96
2023-08-22T07:20:39.326Z,132.70
2023-08-22T07:21:39.302Z,130.33
2023-08-22T07:22:39.679Z,127.56
2023-08-22T07:23:39.280Z,137.81
2023-08-22T07:24:39.313Z,155.67
2023-08-22T07:25:39.286Z,173.15
2023-08-22T07:26:39.246Z,188.30
2023-08-22T07:27:39.540Z,186.50
2023-08-22T07:28:39.243Z,201.01
2023-08-22T07:29:39.229Z,220.01
2023-08-22T07:30:39.286Z,216.83
2023-08-22T07:31:39.228Z,227.11
2023-08-22T07:32:39.366Z,265.19
2023-08-22T07:33:39.199Z,246.60
2023-08-22T07:34:39.175Z,240.85
2023-08-22T07:35:39.154Z,273.30
2023-08-22T07:36:39.167Z,254.57
2023-08-22T07:37:39.194Z,272.63
2023-08-22T07:38:39.140Z,286.07
2023-08-22T07:39:39.123Z,278.13
2023-08-22T07:40:39.128Z,281.93
2023-08-22T07:41:39.086Z,314.37
2023-08-22T07:42:39.375Z,325.51
2023-08-22T07:43:39.109Z,290.35
2023-08-22T07:44:39.056Z,276.97
2023-08-22T07:45:39.055Z,257.55
2023-08-22T07:46:39.123Z,266.26
2023-08-22T07:47:39.082Z,279.54
2023-08-22T07:48:39.067Z,278.60
2023-08-22T07:49:39.051Z,261.83
2023-08-22T07:50:38.989Z,261.62
2023-08-22T07:51:39.007Z,255.95
2023-08-22T07:52:38.998Z,245.68
2023-08-22T07:53:38.972Z,238.93
2023-08-22T07:54:38.961Z,256.15
2023-08-22T07:55:38.968Z,281.45
2023-08-22T07:56:38.926Z,290.35
2023-08-22T07:57:38.919Z,280.73
2023-08-22T07:58:38.979Z,294.22
2023-08-22T07:59:38.921Z,290.35
2023-08-22T08:00:39.023Z,302.85
2023-08-22T08:01:38.896Z,299.01
2023-08-22T08:02:38.950Z,288.32
2023-08-22T08:03:38.970Z,311.99
2023-08-22T08:04:38.866Z,358.71
2023-08-22T08:05:38.883Z,392.88
2023-08-22T08:06:38.855Z,411.91
2023-08-22T08:07:38.827Z,418.58
2023-08-22T08:08:38.808Z,429.56
2023-08-22T08:09:38.796Z,441.99
2023-08-22T08:10:38.989Z,454.86
2023-08-22T08:11:38.934Z,458.90
2023-08-22T08:12:38.755Z,473.79
2023-08-22T08:13:38.771Z,483.68
2023-08-22T08:14:38.728Z,466.87
2023-08-22T08:15:38.810Z,439.10
2023-08-22T08:16:41.048Z,459.21
2023-08-22T08:17:38.847Z,450.59
2023-08-22T08:18:38.704Z,428.73
2023-08-22T08:19:38.681Z,439.97
2023-08-22T08:20:38.680Z,456.10
2023-08-22T08:21:38.711Z,428.19
2023-08-22T08:22:38.657Z,407.91
2023-08-22T08:23:38.640Z,399.18
2023-08-22T08:24:38.636Z,394.03
2023-08-22T08:25:38.643Z,432.60
2023-08-22T08:26:38.604Z,410.65
2023-08-22T08:27:38.611Z,380.85
2023-08-22T08:28:38.587Z,402.53
2023-08-22T08:29:38.572Z,433.72
2023-08-22T08:30:38.616Z,443.16
2023-08-22T08:31:38.544Z,458.27
2023-08-22T08:32:38.633Z,476.47
2023-08-22T08:33:38.530Z,449.68
2023-08-22T08:34:38.536Z,411.15
2023-08-22T08:35:38.504Z,432.04
2023-08-22T08:36:38.498Z,430.38
2023-08-22T08:37:38.525Z,423.33
2023-08-22T08:38:38.581Z,426.83
2023-08-22T08:39:38.468Z,419.89
2023-08-22T08:40:38.500Z,431.49
2023-08-22T08:41:38.476Z,488.60
2023-08-22T08:42:38.462Z,532.35
2023-08-22T08:43:38.440Z,519.19
2023-08-22T08:44:38.444Z,505.51
2023-08-22T08:45:38.431Z,552.49
2023-08-22T08:46:38.460Z,544.87
2023-08-22T08:47:38.399Z,509.35
2023-08-22T08:48:38.394Z,511.67
2023-08-22T08:49:38.363Z,559.86
2023-08-22T08:50:38.369Z,590.88
2023-08-22T08:51:38.364Z,588.29
2023-08-22T08:52:38.363Z,611.31
2023-08-22T08:53:38.330Z,575.20
2023-08-22T08:54:38.381Z,544.87
2023-08-22T08:55:38.333Z,554.77
2023-08-22T08:56:38.323Z,532.77
2023-08-22T08:57:38.304Z,527.34
2023-08-22T08:58:38.305Z,524.86
2023-08-22T08:59:38.268Z,525.69
2023-08-22T09:00:38.233Z,518.39
2023-08-22T09:01:38.243Z,547.09
2023-08-22T09:02:38.261Z,543.99
2023-08-22T09:03:38.289Z,573.23
2023-08-22T09:04:38.201Z,564.09
2023-08-22T09:05:38.267Z,564.09
2023-08-22T09:06:38.260Z,572.26
2023-08-22T09:07:38.173Z,585.22
2023-08-22T09:08:38.173Z,614.10
2023-08-22T09:09:38.183Z,637.41
2023-08-22T09:10:38.147Z,628.46
2023-08-22T09:11:41.958Z,623.22
2023-08-22T09:12:38.115Z,605.25
2023-08-22T09:13:50.235Z,662.55
2023-08-22T09:14:38.102Z,663.86
2023-08-22T09:15:38.116Z,691.89
2023-08-22T09:16:38.121Z,730.25
2023-08-22T09:17:38.112Z,772.54
2023-08-22T09:18:38.085Z,768.13
2023-08-22T09:19:38.041Z,794.92
2023-08-22T09:20:38.036Z,846.98
2023-08-22T09:21:38.041Z,819.12
2023-08-22T09:22:38.034Z,825.15
2023-08-22T09:23:38.005Z,825.66
2023-08-22T09:24:38.954Z,802.98
2023-08-22T09:25:37.985Z,802.51
2023-08-22T09:26:38.007Z,805.87
2023-08-22T09:27:37.984Z,778.81
2023-08-22T09:28:37.943Z,781.07
2023-08-22T09:29:38.535Z,797.27
2023-08-22T09:30:37.935Z,787.47
2023-08-22T09:31:38.148Z,768.57
2023-08-22T09:32:37.979Z,747.31
2023-08-22T09:33:37.900Z,722.40
2023-08-22T09:34:37.900Z,755.19
2023-08-22T09:35:37.905Z,775.22
2023-08-22T09:36:37.862Z,759.03
2023-08-22T09:37:37.922Z,740.71
2023-08-22T09:38:37.864Z,734.24
2023-08-22T09:39:37.842Z,728.66
2023-08-22T09:40:37.836Z,742.35
2023-08-22T09:41:37.842Z,740.71
2023-08-22T09:42:37.808Z,691.18
2023-08-22T09:43:37.790Z,717.77
2023-08-22T09:44:37.815Z,717.00
2023-08-22T09:45:37.793Z,687.64
2023-08-22T09:46:37.768Z,653.53
2023-08-22T09:47:37.808Z,681.37
2023-08-22T09:48:37.777Z,690.47
2023-08-22T09:49:37.733Z,689.05
2023-08-22T09:50:37.722Z,686.94
2023-08-22T09:51:37.717Z,689.76
2023-08-22T09:52:37.791Z,713.19
2023-08-22T09:53:37.674Z,694.04
2023-08-22T09:54:37.664Z,694.04
2023-08-22T09:55:37.683Z,714.71
2023-08-22T09:56:37.644Z,704.22
2023-08-22T09:57:37.691Z,681.37
2023-08-22T09:58:37.647Z,682.06
2023-08-22T09:59:37.655Z,647.23
2023-08-22T10:00:37.611Z,622.06
2023-08-22T10:01:37.712Z,630.82
2023-08-22T10:02:37.688Z,659.30
2023-08-22T10:03:37.661Z,657.37
2023-08-22T10:04:37.676Z,647.86
2023-08-22T10:05:37.588Z,659.95
2023-08-22T10:06:46.430Z,664.52
2023-08-22T10:07:37.529Z,647.86
2023-08-22T10:08:37.514Z,659.95
2023-08-22T10:09:37.561Z,667.82
2023-08-22T10:10:37.507Z,652.26
2023-08-22T10:11:37.520Z,663.86
2023-08-22T10:12:37.519Z,651.63
2023-08-22T10:13:37.461Z,642.90
2023-08-22T10:14:37.481Z,643.51
2023-08-22T10:15:37.447Z,657.37
2023-08-22T10:16:37.438Z,667.82
2023-08-22T10:17:37.498Z,654.80
2023-08-22T10:18:37.415Z,650.37
2023-08-22T10:19:37.452Z,656.72
2023-08-22T10:20:37.499Z,648.48
2023-08-22T10:21:37.387Z,667.16
2023-08-22T10:22:37.402Z,685.54
2023-08-22T10:23:37.598Z,691.18
2023-08-22T10:24:37.349Z,673.85
2023-08-22T10:25:37.367Z,691.18
2023-08-22T10:26:42.141Z,692.61
2023-08-22T10:27:37.330Z,654.80
2023-08-22T10:28:37.334Z,704.22
2023-08-22T10:29:37.413Z,716.23
2023-08-22T10:30:37.347Z,705.70
2023-08-22T10:31:37.326Z,706.44
2023-08-22T10:32:37.333Z,723.95
2023-08-22T10:33:37.352Z,755.62
2023-08-22T10:34:37.236Z,779.26
2023-08-22T10:35:37.241Z,768.57
2023-08-22T10:36:37.236Z,826.67
2023-08-22T10:37:37.226Z,874.51
2023-08-22T10:38:37.266Z,871.11
2023-08-22T10:40:37.218Z,913.72
2023-08-22T10:41:37.167Z,899.66
2023-08-22T10:42:37.202Z,887.20
2023-08-22T10:43:37.187Z,880.23
2023-08-22T10:44:37.200Z,889.55
2023-08-22T10:45:37.144Z,891.91
2023-08-22T10:46:37.123Z,888.38
2023-08-22T10:47:37.115Z,908.17
2023-08-22T10:48:37.092Z,914.97
2023-08-22T10:49:38.351Z,943.20
2023-08-22T10:50:37.124Z,963.47
2023-08-22T10:51:37.045Z,969.72
2023-08-22T10:52:37.088Z,1003.73
2023-08-22T10:53:37.118Z,1057.39
2023-08-22T10:54:37.046Z,1053.25
2023-08-22T10:55:37.042Z,1057.39
2023-08-22T10:56:37.081Z,1123.64
2023-08-22T10:57:36.983Z,1190.27
2023-08-22T10:58:37.050Z,1194.49
2023-08-22T10:59:38.113Z,1167.53
2023-08-22T11:00:37.032Z,1187.11
2023-08-22T11:01:37.015Z,1252.33
2023-08-22T11:02:36.969Z,1288.31
2023-08-22T11:03:37.104Z,1312.19
2023-08-22T11:04:36.984Z,1288.31
2023-08-22T11:05:36.910Z,1299.52
2023-08-22T11:06:36.959Z,1293.27
2023-08-22T11:07:36.943Z,1345.00
2023-08-22T11:08:36.919Z,1351.76
2023-08-22T11:09:36.875Z,1401.04
2023-08-22T11:10:36.885Z,1421.78
2023-08-22T11:11:36.847Z,1395.23
2023-08-22T11:12:36.938Z,1398.13
2023-08-22T11:13:36.819Z,1369.65
2023-08-22T11:14:36.840Z,1338.31
2023-08-22T11:15:36.821Z,1293.27
2023-08-22T11:16:36.857Z,1231.69
2023-08-22T11:17:36.813Z,1171.60
2023-08-22T11:18:36.830Z,1195.56
2023-08-22T11:19:36.756Z,1213.90
2023-08-22T11:20:36.748Z,1224.95
2023-08-22T11:21:36.807Z,1157.49
2023-08-22T11:22:36.734Z,1156.49
2023-08-22T11:23:36.822Z,1132.15
2023-08-22T11:24:36.709Z,1159.48
2023-08-22T11:25:36.715Z,1180.86
2023-08-22T11:26:36.686Z,1151.54
2023-08-22T11:27:36.685Z,1116.18
2023-08-22T11:28:36.804Z,1115.26
2023-08-22T11:29:36.698Z,1098.86
2023-08-22T11:30:36.698Z,1076.86
2023-08-22T11:31:36.651Z,1084.68
2023-08-22T11:32:36.657Z,1097.06
2023-08-22T11:33:36.621Z,1149.57
2023-08-22T11:34:36.631Z,1138.86
2023-08-22T11:35:36.659Z,1113.41
2023-08-22T11:36:36.653Z,1134.06
2023-08-22T11:37:36.602Z,1133.11
2023-08-22T11:38:36.608Z,1127.41
2023-08-22T11:39:36.571Z,1162.49
2023-08-22T11:40:36.580Z,1151.54
2023-08-22T11:41:36.584Z,1116.18
2023-08-22T11:42:36.559Z,1089.07
2023-08-22T11:43:37.973Z,1094.39
2023-08-22T11:44:36.517Z,1101.56
2023-08-22T11:45:36.610Z,1143.71
2023-08-22T11:46:36.531Z,1133.11
2023-08-22T11:47:36.550Z,1152.53
2023-08-22T11:48:36.475Z,1141.77
2023-08-22T11:49:36.454Z,1086.43
2023-08-22T11:50:36.518Z,1051.60
2023-08-22T11:51:36.445Z,1077.72
2023-08-22T11:52:36.445Z,1089.07
2023-08-22T11:53:36.499Z,1068.31
2023-08-22T11:54:36.471Z,1077.72
2023-08-22T11:55:36.547Z,1102.46
2023-08-22T11:56:36.377Z,1109.74
2023-08-22T11:57:36.501Z,1107.91
2023-08-22T11:58:36.555Z,1104.27
2023-08-22T11:59:36.422Z,1122.70
2023-08-22T12:00:36.338Z,1112.49
2023-08-22T12:01:36.394Z,1106.08
2023-08-22T12:02:36.355Z,1072.57
2023-08-22T12:03:36.342Z,1045.88
2023-08-22T12:04:36.629Z,1105.18
2023-08-22T12:05:36.287Z,1131.20
2023-08-22T12:06:36.280Z,1173.65
2023-08-22T12:07:36.266Z,1177.76
2023-08-22T12:08:36.275Z,1167.53
2023-08-22T12:09:36.289Z,1157.49
2023-08-22T12:10:36.274Z,1171.60
2023-08-22T12:11:36.261Z,1155.50
2023-08-22T12:12:36.341Z,1129.30
2023-08-22T12:13:36.211Z,1125.52
2023-08-22T12:14:36.241Z,1115.26
2023-08-22T12:15:36.223Z,1084.68
2023-08-22T12:16:36.215Z,1081.19
2023-08-22T12:17:36.242Z,1090.83
2023-08-22T12:18:36.302Z,1103.36
2023-08-22T12:19:36.163Z,1135.98
2023-08-22T12:20:36.191Z,1151.54
2023-08-22T12:21:36.140Z,1143.71
2023-08-22T12:22:36.132Z,1160.48
2023-08-22T12:23:36.130Z,1190.27
2023-08-22T12:24:36.094Z,1204.12
2023-08-22T12:25:36.079Z,1189.21
2023-08-22T12:26:36.136Z,1191.32
2023-08-22T12:27:36.167Z,1228.31
2023-08-22T12:28:36.095Z,1246.52
2023-08-22T12:29:36.071Z,1222.73
2023-08-22T12:30:36.050Z,1241.92
2023-08-22T12:31:36.203Z,1266.48
2023-08-22T12:32:36.058Z,1237.35
2023-08-22T12:33:36.026Z,1196.62
2023-08-22T12:34:36.012Z,1220.51
2023-08-22T12:35:36.034Z,1223.84
2023-08-22T12:36:35.994Z,1178.79
2023-08-22T12:37:36.008Z,1141.77
2023-08-22T12:38:36.067Z,1092.61
2023-08-22T12:39:35.954Z,1100.65